This is the latest recevied weather packets stored in our database for station/object OK1PMP-6. If no packets are shown the sender has not sent any weather packets the latest 10 day(s).
| Time | Temp. | Humidity | Pressure | Rain* | Wind** | Luminosity | Snow |
|---|---|---|---|---|---|---|---|
| 1777729589 | 26.67° C | 24% | 1024.3 hPa | 0 mm | - | 483 W/m² | - |
| 1777728681 | 26.67° C | 24% | 1024.6 hPa | 0 mm | - | 517 W/m² | - |
| 1777727776 | 26.11° C | 24% | 1024.5 hPa | 0 mm | - | 549 W/m² | - |
| 1777726874 | 25.56° C | 27% | 1024.9 hPa | 0 mm | - | 578 W/m² | - |
| 1777725973 | 26.11° C | 25% | 1025.2 hPa | 0 mm | - | 605 W/m² | - |
| 1777725067 | 25.56° C | 26% | 1025.5 hPa | 0 mm | - | 631 W/m² | - |
| 1777724167 | 25° C | 25% | 1025.7 hPa | 0 mm | - | 653 W/m² | - |
| 1777723273 | 24.44° C | 26% | 1025.9 hPa | 0 mm | - | 674 W/m² | - |
| 1777722363 | 24.44° C | 25% | 1026.1 hPa | 0 mm | - | 691 W/m² | - |
| 1777721463 | 23.33° C | 29% | 1026.1 hPa | 0 mm | - | 575 W/m² | - |
| 1777720560 | 23.33° C | 29% | 1026.7 hPa | 0 mm | - | 714 W/m² | - |
| 1777719653 | 23.33° C | 31% | 1026.7 hPa | 0 mm | - | 722 W/m² | - |
| 1777718748 | 22.78° C | 30% | 1026.8 hPa | 0 mm | - | 727 W/m² | - |
| 1777717842 | 22.78° C | 31% | 1027 hPa | 0 mm | - | 727 W/m² | - |
| 1777716952 | 23.33° C | 31% | 1027.2 hPa | 0 mm | - | 721 W/m² | - |
| 1777716040 | 23.33° C | 31% | 1027.2 hPa | 0 mm | - | 717 W/m² | - |
| 1777715139 | 23.33° C | 30% | 1027.6 hPa | 0 mm | - | 193 W/m² | - |
| 1777714237 | 22.78° C | 31% | 1027.8 hPa | 0 mm | - | 696 W/m² | - |
| 1777713337 | 22.22° C | 29% | 1028 hPa | 0 mm | - | 681 W/m² | - |
| 1777712430 | 22.22° C | 36% | 1027.9 hPa | 0 mm | - | 668 W/m² | - |
| 1777711529 | 20.56° C | 40% | 1028 hPa | 0 mm | - | 645 W/m² | - |
| 1777710624 | 19.44° C | 43% | 1028.3 hPa | 0 mm | - | 622 W/m² | - |
| 1777709721 | 17.78° C | 48% | 1028.4 hPa | 0 mm | - | 596 W/m² | - |
| 1777708818 | 16.67° C | 51% | 1028.6 hPa | 0 mm | - | 568 W/m² | - |
| 1777707918 | 15.56° C | 53% | 1028.8 hPa | 0 mm | - | 535 W/m² | - |
* Rain latest hour (hover to see other rain measurements)
** Current wind speed in m/s (hover to see current wind gust speed)